AirNav   TITAN Aviation Fuels
 
 503 users online  

95TA Thunder Creek Airport
Utopia, Texas, USA

GOING TO UTOPIA?


FAA INFORMATION EFFECTIVE 02 DECEMBER 2021

Location

FAA Identifier: 95TA
Lat/Long: 29-38-05.8160N 099-28-56.1680W
29-38.096933N 099-28.936133W
29.6349489,-99.4822689
(estimated)
Elevation: 1500 ft. / 457 m (estimated)
Variation: 08E (1985)
From city: 5 miles E of UTOPIA, TX
Time zone: UTC -6 (UTC -5 during Daylight Saving Time)
Zip code: 78884

Airport Operations

Airport use: Private use. Permission required prior to landing
Activation date: 12/1982
Control tower: no
ARTCC: HOUSTON CENTER
FSS: SAN ANGELO FLIGHT SERVICE STATION
Attendance: UNATNDD
Wind indicator: yes
Segmented circle: yes

Nearby radio navigation aids

VOR radial/distance  VOR name  Freq  Var
CSIr211/22.2CENTER POINT VORTAC117.5008E

Airport Services

Runway Information

Runway 4/22

Dimensions: 2700 x 100 ft. / 823 x 30 m
Surface: turf, in good condition
RUNWAY 4  RUNWAY 22
Traffic pattern: leftright
Obstructions: trees, marked, 400 ft. from runwaynone

Airport Ownership and Management from official FAA records

Ownership: Privately-owned
Owner: THUNDER CREEK RANCH LANDOWNERS
P.O. BOX 121
UTOPIA, TX 78884
Phone 830-796-1588
Manager: BILL KELLNER
P.O. BOX 121
UTOPIA, TX 78884
Phone 830-966-3615
OR 830-796-1588.

Airport Operational Statistics

Aircraft based on the field: 3
Single engine airplanes: 3
    

Additional Remarks

FOR CD CTC HOUSTON ARTCC AT 281-230-5622.

Instrument Procedures

There are no published instrument procedures at 95TA.

Some nearby airports with instrument procedures:

KHDO - South Texas Regional Airport at Hondo (23 nm SE)
KUVA - Garner Field Airport (29 nm SW)
KERV - Kerrville Municipal Airport/Louis Schreiner Field (29 nm NE)
KCVB - Castroville Municipal Airport (37 nm SE)
KECU - Edwards County Airport (41 nm NW)
 
Loc | Ops | Rwys | IFR | FBO | Links
Com | Nav | Svcs | Stats | Notes
Area around 95TA (Thunder Creek Airport)
 
Road maps at: MapQuest Bing Google
 
Aerial photo
No photo
 
Sectional chart

 
Airport distance calculator
Flying to Thunder Creek Airport? Find the distance to fly.

From to 95TA

Sunrise and sunset
Times for 08-Dec-2021
 Local
(UTC-6)
 Zulu
(UTC)
Morning civil twilight06:5612:56
Sunrise07:2213:22
Sunset17:3823:38
Evening civil twilight18:0400:04

Current date and time
Zulu (UTC)  08-Dec-2021 06:45:32
Local (UTC-6)  08-Dec-2021 00:45:32
 
METAR
KHDO 
23nm SE 
080551Z AUTO 02004KT 10SM CLR 07/04 A3000 RMK AO2 SLP153 T00720039 10172 20072 402170056 50008
KUVA 
29nm SW 
080635Z AUTO 07004KT 10SM CLR 07/05 A3002 RMK AO2 T00730054
KERV 
29nm NE 
080635Z AUTO 00000KT 10SM CLR 05/03 A3001 RMK AO2 T00450030
KCVB 
37nm SE 
080634Z AUTO 31006KT 7SM CLR 08/05 A3001 RMK AO2
KECU 
41nm NW 
080635Z AUTO 17007KT 10SM 12/03 A3005 RMK AO2
K5C1 
41nm E 
080635Z AUTO 00000KT 10SM CLR 06/03 A3001 RMK AO1
TAF
NOTAMs
Click for the latest NOTAMs
NOTAMs are issued by the DoD/FAA and will open in a separate window not controlled by AirNav.

 

 
 

Would you like to see your business listed on this page?

 If your business provides an interesting product or service to pilots, flight crews, aircraft, or users of the Thunder Creek Airport, you should consider listing it here.  To start the listing process, click on the button below
 
Add a business
 

Other Pages about Thunder Creek Airport

Update a link
 
Copyright © AirNav, LLC. All rights reserved. Privacy Policy  Contact